createdAt,value
2022-08-31T00:00:45.897Z,68.5
2022-08-31T00:02:03.001Z,68.5
2022-08-31T00:03:20.105Z,68.6
2022-08-31T00:04:37.208Z,68.7
2022-08-31T00:05:54.312Z,68.8
2022-08-31T00:07:11.416Z,68.9
2022-08-31T00:08:28.520Z,69
2022-08-31T00:09:45.624Z,69.2
2022-08-31T00:11:02.728Z,69.2
2022-08-31T00:12:19.832Z,69.4
2022-08-31T00:13:36.935Z,69.4
2022-08-31T00:14:53.055Z,69.4
2022-08-31T00:16:10.159Z,69.5
2022-08-31T00:17:27.263Z,69.6
2022-08-31T00:18:44.368Z,69.7
2022-08-31T00:20:01.471Z,69.8
2022-08-31T00:21:18.575Z,69.8
2022-08-31T00:22:35.679Z,69.8
2022-08-31T00:23:52.783Z,69.7
2022-08-31T00:25:09.887Z,69.8
2022-08-31T00:26:26.992Z,69.6
2022-08-31T00:27:44.096Z,69.8
2022-08-31T00:29:01.200Z,69.8
2022-08-31T00:30:18.304Z,69.8
2022-08-31T00:31:34.424Z,69.8
2022-08-31T00:32:51.528Z,69.7
2022-08-31T00:34:08.632Z,69.8
2022-08-31T00:35:25.736Z,70
2022-08-31T00:36:42.840Z,70
2022-08-31T00:37:59.944Z,70.2
2022-08-31T00:39:17.047Z,70.2
2022-08-31T00:40:34.151Z,70.3
2022-08-31T00:41:51.255Z,70.3
2022-08-31T00:43:08.359Z,70
2022-08-31T00:44:25.463Z,70
2022-08-31T00:45:42.567Z,69.8
2022-08-31T00:46:59.671Z,69.7
2022-08-31T00:48:15.791Z,69.6
2022-08-31T00:49:32.895Z,69.6
2022-08-31T00:50:49.999Z,69.7
2022-08-31T00:52:07.103Z,69.7
2022-08-31T00:53:24.207Z,69.6
2022-08-31T00:54:41.312Z,69.5
2022-08-31T00:55:58.416Z,69.3
2022-08-31T00:57:15.520Z,69.3
2022-08-31T00:58:32.624Z,69.3
2022-08-31T00:59:49.728Z,69.3
2022-08-31T01:01:06.832Z,69.3
2022-08-31T01:02:23.936Z,69.2
2022-08-31T01:03:41.040Z,69.2
2022-08-31T01:04:58.144Z,69.2
2022-08-31T01:06:14.265Z,69.4
2022-08-31T01:07:31.368Z,69.4
2022-08-31T01:08:48.472Z,69.5
2022-08-31T01:10:05.576Z,69.6
2022-08-31T01:11:22.680Z,69.6
2022-08-31T01:12:39.784Z,69.6
2022-08-31T01:13:56.888Z,69.5
2022-08-31T01:15:13.992Z,69.5
2022-08-31T01:16:31.095Z,69.6
2022-08-31T01:17:48.199Z,69.7
2022-08-31T01:19:05.303Z,69.8
2022-08-31T01:20:22.407Z,69.9
2022-08-31T01:21:39.510Z,69.9
2022-08-31T01:22:55.630Z,69.9
2022-08-31T01:24:12.734Z,69.9
2022-08-31T01:25:29.838Z,69.7
2022-08-31T01:26:46.942Z,69.8
2022-08-31T01:28:04.046Z,70
2022-08-31T01:29:21.150Z,69.8
2022-08-31T01:30:38.254Z,69.9
2022-08-31T01:31:55.357Z,69.8
2022-08-31T01:33:12.461Z,69.7
2022-08-31T01:34:29.565Z,69.9
2022-08-31T01:35:46.670Z,70.7
2022-08-31T01:37:03.773Z,70.9
2022-08-31T01:38:20.877Z,70.3
2022-08-31T01:39:36.998Z,70.5
2022-08-31T01:40:54.102Z,70.5
2022-08-31T01:42:11.207Z,70.3
2022-08-31T01:43:28.311Z,70
2022-08-31T01:44:45.415Z,70.2
2022-08-31T01:46:02.519Z,70.1
2022-08-31T01:47:19.624Z,70.1
2022-08-31T01:48:36.728Z,70
2022-08-31T01:49:53.832Z,70
2022-08-31T01:51:10.936Z,70.3
2022-08-31T01:52:28.041Z,70.3
2022-08-31T01:53:45.145Z,70.2
2022-08-31T01:55:02.249Z,70.1
2022-08-31T01:56:18.369Z,70
2022-08-31T01:57:35.474Z,69.8
2022-08-31T01:58:52.578Z,69.8
2022-08-31T02:00:09.683Z,69.6
2022-08-31T02:01:26.787Z,69.5
2022-08-31T02:02:43.891Z,69.3
2022-08-31T02:04:00.995Z,69.3
2022-08-31T02:05:18.099Z,69.3
2022-08-31T02:06:35.203Z,69.4
2022-08-31T02:07:52.308Z,69.4
2022-08-31T02:09:09.412Z,69.3
2022-08-31T02:10:26.517Z,69.2
2022-08-31T02:11:43.621Z,69.4
2022-08-31T02:12:59.742Z,69.3
2022-08-31T02:14:16.846Z,69.7
2022-08-31T02:15:33.950Z,69.8
2022-08-31T02:16:51.055Z,69.5
2022-08-31T02:18:08.159Z,69.5
2022-08-31T02:19:25.263Z,69.5
2022-08-31T02:20:42.368Z,69.5
2022-08-31T02:21:59.472Z,69.3
2022-08-31T02:23:16.576Z,69.3
2022-08-31T02:24:33.680Z,69.2
2022-08-31T02:25:50.784Z,69.3
2022-08-31T02:27:07.889Z,69.3
2022-08-31T02:28:24.992Z,69.3
2022-08-31T02:29:41.113Z,69.3
2022-08-31T02:30:58.217Z,69.3
2022-08-31T02:32:15.322Z,69.3
2022-08-31T02:33:32.426Z,69
2022-08-31T02:34:49.530Z,69
2022-08-31T02:36:06.634Z,69
2022-08-31T02:37:23.738Z,69
2022-08-31T02:38:40.842Z,68.6
2022-08-31T02:39:57.945Z,68.2
2022-08-31T02:41:15.049Z,68.3
2022-08-31T02:42:32.154Z,68.3
2022-08-31T02:43:49.257Z,68.2
2022-08-31T02:45:06.362Z,68.3
2022-08-31T02:46:22.482Z,68.1
2022-08-31T02:47:39.586Z,68
2022-08-31T02:48:56.690Z,68
2022-08-31T02:50:13.794Z,68.2
2022-08-31T02:51:30.897Z,68.2
2022-08-31T02:52:47.017Z,69.2
2022-08-31T02:54:04.121Z,71
2022-08-31T02:55:21.225Z,71.9
2022-08-31T02:56:38.329Z,71.6
2022-08-31T02:57:55.433Z,72.6
2022-08-31T02:59:12.537Z,74.7
2022-08-31T03:00:29.640Z,74.8
2022-08-31T03:01:46.744Z,75.1
2022-08-31T03:03:03.848Z,75.9
2022-08-31T03:04:20.951Z,76.5
2022-08-31T03:05:38.056Z,77.1
2022-08-31T03:06:55.159Z,77.4
2022-08-31T03:08:12.263Z,76.9
2022-08-31T03:09:28.384Z,76.2
2022-08-31T03:10:45.488Z,76.6
2022-08-31T03:12:02.592Z,76.6
2022-08-31T03:13:19.696Z,76.5
2022-08-31T03:14:36.801Z,76.8
2022-08-31T03:15:53.905Z,77.5
2022-08-31T03:17:11.009Z,76.9
2022-08-31T03:18:28.113Z,76.8
2022-08-31T03:19:45.218Z,77.5
2022-08-31T03:21:02.322Z,77.2
2022-08-31T03:22:19.426Z,77.2
2022-08-31T03:23:36.531Z,77.3
2022-08-31T03:24:53.635Z,77.6
2022-08-31T03:26:09.755Z,77.8
2022-08-31T03:27:26.860Z,77.7
2022-08-31T03:28:43.965Z,77.2
2022-08-31T03:30:01.069Z,77.3
2022-08-31T03:31:18.173Z,77.3
2022-08-31T03:32:35.278Z,77.1
2022-08-31T03:33:52.382Z,77.5
2022-08-31T03:35:09.487Z,77.6
2022-08-31T03:36:26.591Z,77.7
2022-08-31T03:37:43.696Z,77.6
2022-08-31T03:39:00.800Z,77.5
2022-08-31T03:40:17.905Z,77.8
2022-08-31T03:41:35.009Z,77.8
2022-08-31T03:42:51.129Z,78
2022-08-31T03:44:08.234Z,78.3
2022-08-31T03:45:25.338Z,78.2
2022-08-31T03:46:42.442Z,77.8
2022-08-31T03:47:59.547Z,77.8
2022-08-31T03:49:16.651Z,77.8
2022-08-31T03:50:33.756Z,77.8
2022-08-31T03:51:50.860Z,77.8
2022-08-31T03:53:07.965Z,77
2022-08-31T03:54:25.069Z,77.5
2022-08-31T03:55:42.173Z,78
2022-08-31T03:56:59.277Z,78.1
2022-08-31T03:58:16.381Z,78.8
2022-08-31T03:59:32.502Z,78.9
2022-08-31T04:00:49.607Z,78.8
2022-08-31T04:02:06.711Z,78.6
2022-08-31T04:03:23.816Z,78.6
2022-08-31T04:04:40.920Z,78.5
2022-08-31T04:05:58.025Z,78.5
2022-08-31T04:07:15.129Z,78.3
2022-08-31T04:08:32.233Z,78.6
2022-08-31T04:09:49.337Z,78.4
2022-08-31T04:11:06.441Z,78.5
2022-08-31T04:12:23.546Z,78.5
2022-08-31T04:13:40.650Z,78.3
2022-08-31T04:14:57.755Z,78.3
2022-08-31T04:16:13.875Z,78.3
2022-08-31T04:17:30.979Z,78.5
2022-08-31T04:18:48.083Z,78.7
2022-08-31T04:20:05.188Z,78.7
2022-08-31T04:21:22.292Z,78.5
2022-08-31T04:22:39.397Z,78.3
2022-08-31T04:23:56.501Z,78.5
2022-08-31T04:25:13.605Z,78.3
2022-08-31T04:26:30.709Z,78.2
2022-08-31T04:27:47.813Z,78
2022-08-31T04:29:04.918Z,77.8
2022-08-31T04:30:22.022Z,77.8
2022-08-31T04:31:39.126Z,77.7
2022-08-31T04:32:55.246Z,77.5
2022-08-31T04:34:12.350Z,77.3
2022-08-31T04:35:29.455Z,77.2
2022-08-31T04:36:46.559Z,77.2
2022-08-31T04:38:03.663Z,77
2022-08-31T04:39:20.767Z,76.8
2022-08-31T04:40:37.871Z,76.9
2022-08-31T04:41:54.975Z,77.5
2022-08-31T04:43:12.079Z,78
2022-08-31T04:44:29.184Z,78.5
2022-08-31T04:45:46.288Z,78.6
2022-08-31T04:47:03.392Z,78.4
2022-08-31T04:48:20.497Z,78.6
2022-08-31T04:49:36.617Z,78.6
2022-08-31T04:50:53.721Z,78.4
2022-08-31T04:52:10.826Z,78.1
2022-08-31T04:53:27.931Z,78
2022-08-31T04:54:45.035Z,78.2
2022-08-31T04:56:02.140Z,78.2
2022-08-31T04:57:19.244Z,78.2
2022-08-31T04:58:36.349Z,77.8
2022-08-31T04:59:53.453Z,78
2022-08-31T05:01:10.557Z,78
2022-08-31T05:02:27.661Z,78
2022-08-31T05:03:44.765Z,78.2
2022-08-31T05:05:01.870Z,78
2022-08-31T05:06:17.990Z,78
2022-08-31T05:07:35.094Z,78
2022-08-31T05:08:52.199Z,77.8
2022-08-31T05:10:09.303Z,77.7
2022-08-31T05:11:26.407Z,77.8
2022-08-31T05:12:43.512Z,77.8
2022-08-31T05:14:00.616Z,77.8
2022-08-31T05:15:17.720Z,77.7
2022-08-31T05:16:34.823Z,77.3
2022-08-31T05:17:51.927Z,77.2
2022-08-31T05:19:09.031Z,77.2
2022-08-31T05:20:26.135Z,77
2022-08-31T05:21:43.240Z,77
2022-08-31T05:22:59.360Z,77
2022-08-31T05:24:16.464Z,76.8
2022-08-31T05:25:33.570Z,76.9
2022-08-31T05:26:50.674Z,76.8
2022-08-31T05:28:07.778Z,76.9
2022-08-31T05:29:24.882Z,77.1
2022-08-31T05:30:41.987Z,77.2
2022-08-31T05:31:59.092Z,77.2
2022-08-31T05:33:16.196Z,77.2
2022-08-31T05:34:33.300Z,77.2
2022-08-31T05:35:50.404Z,77.2
2022-08-31T05:37:07.508Z,77.3
2022-08-31T05:38:24.612Z,77.4
2022-08-31T05:39:40.732Z,77.3
2022-08-31T05:40:57.837Z,77.4
2022-08-31T05:42:14.941Z,77.4
2022-08-31T05:43:32.045Z,77.3
2022-08-31T05:44:49.149Z,77.2
2022-08-31T05:46:06.253Z,77.1
2022-08-31T05:47:23.356Z,77.1
2022-08-31T05:48:40.460Z,77.1
2022-08-31T05:49:57.564Z,77
2022-08-31T05:51:14.667Z,76.9
2022-08-31T05:52:31.772Z,76.7
2022-08-31T05:53:48.875Z,76.5
2022-08-31T05:55:05.979Z,76.2
2022-08-31T05:56:22.099Z,76.3
2022-08-31T05:57:39.203Z,76.4
2022-08-31T05:58:56.307Z,76.1
2022-08-31T06:00:13.410Z,76
2022-08-31T06:01:30.515Z,76
2022-08-31T06:02:47.619Z,75.9
2022-08-31T06:04:04.723Z,76
2022-08-31T06:05:21.827Z,75.7
2022-08-31T06:06:38.931Z,75.6
2022-08-31T06:07:56.035Z,75.5
2022-08-31T06:09:13.139Z,75.3
2022-08-31T06:10:30.242Z,75.3
2022-08-31T06:11:47.346Z,75.4
2022-08-31T06:13:03.466Z,75.6
2022-08-31T06:14:20.570Z,75.7
2022-08-31T06:15:37.674Z,75.7
2022-08-31T06:16:54.778Z,75.5
2022-08-31T06:18:11.881Z,75.4
2022-08-31T06:19:28.985Z,75.4
2022-08-31T06:20:46.089Z,75.3
2022-08-31T06:22:03.193Z,74.9
2022-08-31T06:23:20.296Z,74.6
2022-08-31T06:24:37.400Z,74.5
2022-08-31T06:25:54.505Z,74.5
2022-08-31T06:27:11.608Z,74.2
2022-08-31T06:28:28.712Z,74
2022-08-31T06:29:44.832Z,73.5
2022-08-31T06:31:01.936Z,73.7
2022-08-31T06:32:19.039Z,73.6
2022-08-31T06:33:36.143Z,73.5
2022-08-31T06:34:53.247Z,73.4
2022-08-31T06:36:10.351Z,73.2
2022-08-31T06:37:27.455Z,73
2022-08-31T06:38:44.559Z,72.9
2022-08-31T06:40:01.663Z,72.9
2022-08-31T06:41:18.767Z,72.9
2022-08-31T06:42:35.870Z,72.9
2022-08-31T06:43:52.974Z,72.7
2022-08-31T06:45:10.078Z,72.5
2022-08-31T06:46:26.198Z,72.5
2022-08-31T06:47:43.302Z,72.3
2022-08-31T06:49:00.407Z,72.1
2022-08-31T06:50:17.511Z,71.7
2022-08-31T06:51:34.612Z,71.5
2022-08-31T06:52:51.717Z,71.2
2022-08-31T06:54:08.821Z,70.9
2022-08-31T06:55:25.925Z,70.8
2022-08-31T06:56:43.029Z,70.5
2022-08-31T06:58:00.133Z,70
2022-08-31T06:59:17.237Z,68.5
2022-08-31T07:00:34.341Z,68.4
2022-08-31T07:01:51.445Z,69.1
2022-08-31T07:03:07.565Z,68.8
2022-08-31T07:04:24.669Z,68.5
2022-08-31T07:05:41.773Z,68.5
2022-08-31T07:06:58.877Z,67.2
2022-08-31T07:08:15.982Z,66.9
2022-08-31T07:09:33.086Z,66
2022-08-31T07:10:49.206Z,65.8
2022-08-31T07:12:06.310Z,66.2
2022-08-31T07:13:23.414Z,66.7
2022-08-31T07:14:40.518Z,66.9
2022-08-31T07:15:57.623Z,66.3
2022-08-31T07:17:14.727Z,66
2022-08-31T07:18:31.831Z,66
2022-08-31T07:19:48.935Z,65.8
2022-08-31T07:21:06.039Z,66
2022-08-31T07:22:23.144Z,66.2
2022-08-31T07:23:40.248Z,65.7
2022-08-31T07:24:57.353Z,66
2022-08-31T07:26:14.457Z,66
2022-08-31T07:27:30.577Z,66
2022-08-31T07:28:47.681Z,65.8
2022-08-31T07:30:04.785Z,65.6
2022-08-31T07:31:21.889Z,65.5
2022-08-31T07:32:38.993Z,65.3
2022-08-31T07:33:56.098Z,65.2
2022-08-31T07:35:13.202Z,64.6
2022-08-31T07:36:30.306Z,63.9
2022-08-31T07:37:47.410Z,64.5
2022-08-31T07:39:04.514Z,64.3
2022-08-31T07:40:21.619Z,64.2
2022-08-31T07:41:38.723Z,64.1
2022-08-31T07:42:55.827Z,63.1
2022-08-31T07:44:11.947Z,63.3
2022-08-31T07:45:29.051Z,63.1
2022-08-31T07:46:46.155Z,62.8
2022-08-31T07:48:03.259Z,62.7
2022-08-31T07:49:20.363Z,62.4
2022-08-31T07:50:37.467Z,62.2
2022-08-31T07:51:54.571Z,62.4
2022-08-31T07:53:11.676Z,62.5
2022-08-31T07:54:28.780Z,62.5
2022-08-31T07:55:45.884Z,61.9
2022-08-31T07:57:02.988Z,62.3
2022-08-31T07:58:20.092Z,61.7
2022-08-31T07:59:37.196Z,61.6
2022-08-31T08:00:53.316Z,61.9
2022-08-31T08:02:10.420Z,61.7
2022-08-31T08:03:27.524Z,62.2
2022-08-31T08:04:44.628Z,61.5
2022-08-31T08:06:01.732Z,60.9
2022-08-31T08:07:18.836Z,60.4
2022-08-31T08:08:35.940Z,59.9
2022-08-31T08:09:53.044Z,60.3
2022-08-31T08:11:10.148Z,60.1
2022-08-31T08:12:27.251Z,60.2
2022-08-31T08:13:44.355Z,60
2022-08-31T08:15:01.459Z,60.3
2022-08-31T08:16:18.563Z,60.1
2022-08-31T08:17:34.683Z,59.9
2022-08-31T08:18:51.787Z,59.9
2022-08-31T08:20:08.891Z,60.6
2022-08-31T08:21:25.995Z,60.8
2022-08-31T08:22:43.099Z,60.8
2022-08-31T08:24:00.203Z,61
2022-08-31T08:25:17.307Z,60.7
2022-08-31T08:26:34.411Z,60.4
2022-08-31T08:27:51.515Z,60.7
2022-08-31T08:29:08.619Z,60.7
2022-08-31T08:30:25.723Z,60.4
2022-08-31T08:31:42.827Z,60.1
2022-08-31T08:32:59.931Z,60.2
2022-08-31T08:34:16.051Z,60.4
2022-08-31T08:35:33.155Z,60.6
2022-08-31T08:36:50.259Z,60.4
2022-08-31T08:38:07.363Z,60
2022-08-31T08:39:24.467Z,59.9
2022-08-31T08:40:41.571Z,59.9
2022-08-31T08:41:58.675Z,60
2022-08-31T08:43:15.779Z,60.6
2022-08-31T08:44:32.883Z,60.8
2022-08-31T08:45:49.987Z,60.8
2022-08-31T08:47:07.091Z,60.1
2022-08-31T08:48:24.195Z,59.9
2022-08-31T08:49:41.299Z,59.6
2022-08-31T08:50:57.419Z,59.3
2022-08-31T08:52:14.524Z,58.7
2022-08-31T08:53:31.628Z,58.8
2022-08-31T08:54:48.732Z,58.5
2022-08-31T08:56:05.836Z,58.6
2022-08-31T08:57:22.940Z,58.5
2022-08-31T08:58:40.044Z,58.5
2022-08-31T08:59:57.149Z,58.7
2022-08-31T09:01:14.253Z,58.2
2022-08-31T09:02:31.357Z,58
2022-08-31T09:03:48.462Z,58.1
2022-08-31T09:05:05.566Z,57.9
2022-08-31T09:06:22.670Z,57.8
2022-08-31T09:07:38.790Z,57.5
2022-08-31T09:08:55.894Z,57.1
2022-08-31T09:10:12.999Z,57.1
2022-08-31T09:11:30.103Z,57
2022-08-31T09:12:47.207Z,56.4
2022-08-31T09:14:04.312Z,56.5
2022-08-31T09:15:21.416Z,56.6
2022-08-31T09:16:38.520Z,56.5
2022-08-31T09:17:55.624Z,56.6
2022-08-31T09:19:12.728Z,56.5
2022-08-31T09:20:29.832Z,56.4
2022-08-31T09:21:46.936Z,56.4
2022-08-31T09:23:04.040Z,55.9
2022-08-31T09:24:20.160Z,55.8
2022-08-31T09:25:37.264Z,55.6
2022-08-31T09:26:54.368Z,55.5
2022-08-31T09:28:11.472Z,54.9
2022-08-31T09:29:28.576Z,54.2
2022-08-31T09:30:45.681Z,54.8
2022-08-31T09:32:02.785Z,55.1
2022-08-31T09:33:19.889Z,55.1
2022-08-31T09:34:36.993Z,54.9
2022-08-31T09:35:54.097Z,54.9
2022-08-31T09:37:11.201Z,54.7
2022-08-31T09:38:28.305Z,54
2022-08-31T09:39:45.409Z,53.5
2022-08-31T09:41:01.530Z,53
2022-08-31T09:42:18.634Z,53.2
2022-08-31T09:43:35.738Z,53.5
2022-08-31T09:44:52.842Z,53.1
2022-08-31T09:46:09.946Z,52.9
2022-08-31T09:47:27.051Z,52.7
2022-08-31T09:48:44.155Z,52.3
2022-08-31T09:50:01.259Z,52.1
2022-08-31T09:51:18.363Z,51.9
2022-08-31T09:52:35.468Z,51.2
2022-08-31T09:53:52.572Z,51.5
2022-08-31T09:55:09.677Z,51.1
2022-08-31T09:56:26.781Z,51.1
2022-08-31T09:57:42.901Z,51.7
2022-08-31T09:59:00.005Z,51.9
2022-08-31T10:00:17.110Z,51.8
2022-08-31T10:01:34.214Z,51.5
2022-08-31T10:02:51.318Z,51.5
2022-08-31T10:04:08.422Z,51.9
2022-08-31T10:05:25.526Z,52.8
2022-08-31T10:06:42.630Z,52.7
2022-08-31T10:07:59.734Z,53.4
2022-08-31T10:09:16.838Z,53.4
2022-08-31T10:10:33.943Z,53.1
2022-08-31T10:11:51.047Z,53.8
2022-08-31T10:13:08.151Z,53.7
2022-08-31T10:14:24.271Z,53.5
2022-08-31T10:15:41.376Z,53.6
2022-08-31T10:16:58.480Z,53.3
2022-08-31T10:18:15.584Z,52.9
2022-08-31T10:19:32.688Z,53.8
2022-08-31T10:20:49.793Z,54.3
2022-08-31T10:22:06.898Z,54.5
2022-08-31T10:23:24.002Z,53.8
2022-08-31T10:24:41.106Z,53.2
2022-08-31T10:25:58.210Z,52.4
2022-08-31T10:27:15.314Z,53.1
2022-08-31T10:28:32.419Z,53.5
2022-08-31T10:29:49.523Z,52.6
2022-08-31T10:31:05.643Z,53
2022-08-31T10:32:22.748Z,52.5
2022-08-31T10:33:39.852Z,52.2
2022-08-31T10:34:56.956Z,52
2022-08-31T10:36:14.060Z,52.2
2022-08-31T10:37:31.164Z,52.6
2022-08-31T10:38:48.268Z,52.9
2022-08-31T10:40:05.373Z,53.1
2022-08-31T10:41:22.477Z,52.7
2022-08-31T10:42:39.581Z,51.8
2022-08-31T10:43:56.685Z,51.7
2022-08-31T10:45:13.790Z,50.7
2022-08-31T10:46:30.894Z,51.3
2022-08-31T10:47:47.014Z,51.3
2022-08-31T10:49:04.118Z,51.3
2022-08-31T10:50:21.222Z,51.1
2022-08-31T10:51:38.327Z,50.7
2022-08-31T10:52:55.431Z,50.8
2022-08-31T10:54:12.535Z,50.3
2022-08-31T10:55:29.639Z,50
2022-08-31T10:56:46.744Z,49.8
2022-08-31T10:58:03.848Z,49.5
2022-08-31T10:59:20.952Z,49.4
2022-08-31T11:00:38.056Z,49.4
2022-08-31T11:01:55.160Z,49.7
2022-08-31T11:03:12.264Z,49.3
2022-08-31T11:04:28.384Z,49.3
2022-08-31T11:05:45.489Z,49.4
2022-08-31T11:07:02.593Z,50.1
2022-08-31T11:08:19.697Z,51
2022-08-31T11:09:36.801Z,51.1
2022-08-31T11:10:53.905Z,51.7
2022-08-31T11:12:11.009Z,52
2022-08-31T11:13:28.113Z,51.3
2022-08-31T11:14:45.218Z,51.4
2022-08-31T11:16:02.322Z,50.3
2022-08-31T11:17:19.426Z,50.2
2022-08-31T11:18:36.530Z,50.2
2022-08-31T11:19:53.635Z,50.3
2022-08-31T11:21:09.755Z,50.4
2022-08-31T11:22:26.859Z,50.4
2022-08-31T11:23:43.963Z,49.9
2022-08-31T11:25:01.067Z,49.6
2022-08-31T11:26:18.171Z,49.6
2022-08-31T11:27:35.276Z,50.1
2022-08-31T11:28:51.396Z,50.2
2022-08-31T11:30:08.500Z,50.7
2022-08-31T11:31:25.604Z,50.5
2022-08-31T11:32:42.708Z,50.6
2022-08-31T11:33:59.813Z,50.3
2022-08-31T11:35:16.916Z,50.2
2022-08-31T11:36:34.020Z,50.3
2022-08-31T11:37:51.124Z,50.7
2022-08-31T11:39:08.229Z,51.2
2022-08-31T11:40:25.333Z,50.9
2022-08-31T11:41:42.437Z,50.5
2022-08-31T11:42:59.541Z,50.7
2022-08-31T11:44:16.645Z,51.1
2022-08-31T11:45:32.765Z,50.9
2022-08-31T11:46:49.869Z,51.2
2022-08-31T11:48:06.973Z,51.8
2022-08-31T11:49:24.077Z,51.5
2022-08-31T11:50:41.181Z,51.1
2022-08-31T11:51:58.285Z,50.5
2022-08-31T11:53:15.389Z,50.5
2022-08-31T11:54:32.493Z,49.7
2022-08-31T11:55:49.597Z,49.5
2022-08-31T11:57:06.701Z,49.5
2022-08-31T11:58:23.805Z,49.8
2022-08-31T11:59:40.909Z,49.6
2022-08-31T12:00:58.013Z,49.5
2022-08-31T12:02:14.133Z,49.5
2022-08-31T12:03:31.237Z,49.4
2022-08-31T12:04:48.342Z,49.8
2022-08-31T12:06:05.446Z,50.1
2022-08-31T12:07:22.550Z,50.3
2022-08-31T12:08:39.654Z,50.6
2022-08-31T12:09:56.758Z,50.4
2022-08-31T12:11:13.862Z,50.4
2022-08-31T12:12:30.966Z,50
2022-08-31T12:13:48.070Z,49.5
2022-08-31T12:15:05.174Z,49.4
2022-08-31T12:16:22.279Z,48.7
2022-08-31T12:17:39.383Z,48.6
2022-08-31T12:18:55.503Z,48.3
2022-08-31T12:20:12.607Z,47.9
2022-08-31T12:21:29.711Z,48.6
2022-08-31T12:22:46.816Z,48.7
2022-08-31T12:24:03.920Z,49.1
2022-08-31T12:25:21.025Z,49.5
2022-08-31T12:26:38.129Z,49.5
2022-08-31T12:27:55.234Z,49.4
2022-08-31T12:29:12.338Z,49.6
2022-08-31T12:30:29.442Z,49.6
2022-08-31T12:31:46.546Z,49.6
2022-08-31T12:33:03.650Z,49.1
2022-08-31T12:34:20.754Z,49
2022-08-31T12:35:36.875Z,48.6
2022-08-31T12:36:53.979Z,49.5
2022-08-31T12:38:11.083Z,50.4
2022-08-31T12:39:28.187Z,50.3
2022-08-31T12:40:45.291Z,50.3
2022-08-31T12:42:02.395Z,49.9
2022-08-31T12:43:19.499Z,49.4
2022-08-31T12:44:36.603Z,48.9
2022-08-31T12:45:53.708Z,48
2022-08-31T12:47:10.812Z,47
2022-08-31T12:48:27.916Z,46.4
2022-08-31T12:49:45.020Z,47.2
2022-08-31T12:51:02.124Z,46.9
2022-08-31T12:52:18.245Z,46.3
2022-08-31T12:53:35.350Z,45.9
2022-08-31T12:54:52.454Z,46.4
2022-08-31T12:56:09.558Z,46.9
2022-08-31T12:57:26.663Z,47.6
2022-08-31T12:58:43.767Z,48.9
2022-08-31T13:00:00.871Z,49.4
2022-08-31T13:01:17.975Z,48.7
2022-08-31T13:02:35.079Z,48.5
2022-08-31T13:03:52.183Z,48.8
2022-08-31T13:05:09.287Z,49.1
2022-08-31T13:06:26.391Z,48.4
2022-08-31T13:07:43.497Z,48.3
2022-08-31T13:08:59.617Z,48.3
2022-08-31T13:10:16.721Z,47.6
2022-08-31T13:11:33.825Z,46.9
2022-08-31T13:12:50.929Z,46.3
2022-08-31T13:14:08.034Z,45.1
2022-08-31T13:15:25.138Z,45.7
2022-08-31T13:16:42.242Z,45.8
2022-08-31T13:17:59.346Z,45.3
2022-08-31T13:19:16.450Z,45.5
2022-08-31T13:20:33.555Z,45.6
2022-08-31T13:21:50.659Z,45.1
2022-08-31T13:23:07.763Z,45.4
2022-08-31T13:24:24.867Z,46.1
2022-08-31T13:25:40.988Z,46.6
2022-08-31T13:26:58.092Z,47.9
2022-08-31T13:28:15.196Z,48.1
2022-08-31T13:29:32.300Z,48.5
2022-08-31T13:30:49.405Z,48.7
2022-08-31T13:32:06.509Z,49.3
2022-08-31T13:33:23.613Z,49.5
2022-08-31T13:34:40.717Z,49.5
2022-08-31T13:35:57.821Z,50
2022-08-31T13:37:14.925Z,50
2022-08-31T13:38:32.029Z,49.5
2022-08-31T13:39:49.133Z,49.1
2022-08-31T13:42:23.341Z,48.6
2022-08-31T13:43:39.461Z,49.1
2022-08-31T13:44:56.564Z,49.1
2022-08-31T13:46:13.668Z,48.5
2022-08-31T13:47:30.772Z,48.6
2022-08-31T13:48:47.876Z,47.4
2022-08-31T13:50:04.980Z,46.7
2022-08-31T13:51:22.084Z,47.1
2022-08-31T13:52:39.186Z,47.6
2022-08-31T13:53:56.290Z,47.9
2022-08-31T13:55:13.394Z,48.1
2022-08-31T13:56:30.498Z,48.1
2022-08-31T13:57:47.602Z,48.5
2022-08-31T13:59:04.706Z,48.7
2022-08-31T14:00:20.826Z,49.1
2022-08-31T14:01:37.930Z,48.9
2022-08-31T14:02:55.034Z,48.5
2022-08-31T14:04:12.139Z,48.2
2022-08-31T14:05:29.243Z,47.9
2022-08-31T14:06:46.347Z,47.8
2022-08-31T14:08:03.451Z,47.6
2022-08-31T14:09:20.555Z,47.4
2022-08-31T14:10:37.659Z,47
2022-08-31T14:11:54.764Z,46.9
2022-08-31T14:13:11.868Z,47.1
2022-08-31T14:14:28.972Z,46.7
2022-08-31T14:15:46.077Z,46.8
2022-08-31T14:17:02.197Z,46.8
2022-08-31T14:18:19.301Z,46.5
2022-08-31T14:19:36.405Z,46.3
2022-08-31T14:20:53.509Z,46.4
2022-08-31T14:22:10.613Z,45.7
2022-08-31T14:23:27.717Z,45.2
2022-08-31T14:24:44.822Z,46.3
2022-08-31T14:26:01.927Z,46.5
2022-08-31T14:27:19.031Z,46.6
2022-08-31T14:28:36.135Z,46.1
2022-08-31T14:29:53.240Z,46.4
2022-08-31T14:31:10.344Z,46.3
2022-08-31T14:32:27.448Z,46.4
2022-08-31T14:33:43.568Z,46.5
2022-08-31T14:35:00.672Z,46.5
2022-08-31T14:36:17.776Z,46.7
2022-08-31T14:37:34.881Z,46.5
2022-08-31T14:38:51.985Z,46.5
2022-08-31T14:40:09.089Z,46.5
2022-08-31T14:41:26.193Z,46.4
2022-08-31T14:42:43.297Z,46.8
2022-08-31T14:44:00.401Z,46.9
2022-08-31T14:45:17.505Z,46.7
2022-08-31T14:46:34.609Z,46.9
2022-08-31T14:47:51.714Z,46.8
2022-08-31T14:49:08.818Z,46.9
2022-08-31T14:50:24.938Z,47
2022-08-31T14:51:42.042Z,46.9
2022-08-31T14:52:59.146Z,46.7
2022-08-31T14:54:16.250Z,46.4
2022-08-31T14:55:33.354Z,46.4
2022-08-31T14:56:50.457Z,46.4
2022-08-31T14:58:07.561Z,46.4
2022-08-31T14:59:24.665Z,46.4
2022-08-31T15:00:41.769Z,46.2
2022-08-31T15:01:58.873Z,46.3
2022-08-31T15:03:15.977Z,46.1
2022-08-31T15:04:33.081Z,45.8
2022-08-31T15:05:50.186Z,45.7
2022-08-31T15:07:06.306Z,45.6
2022-08-31T15:08:23.410Z,45.6
2022-08-31T15:09:40.514Z,45.6
2022-08-31T15:10:57.618Z,45.6
2022-08-31T15:12:14.722Z,45.6
2022-08-31T15:13:31.825Z,45.6
2022-08-31T15:14:48.929Z,45.6
2022-08-31T15:16:06.033Z,45.6
2022-08-31T15:17:23.137Z,45.7
2022-08-31T15:18:40.241Z,46.2
2022-08-31T15:19:57.345Z,45.4
2022-08-31T15:21:14.449Z,45.6
2022-08-31T15:22:31.553Z,45.3
2022-08-31T15:23:47.673Z,45.6
2022-08-31T15:25:04.777Z,45.5
2022-08-31T15:26:21.881Z,45.6
2022-08-31T15:27:38.985Z,45.7
2022-08-31T15:28:56.089Z,45.6
2022-08-31T15:30:13.193Z,45.5
2022-08-31T15:31:30.297Z,45.5
2022-08-31T15:32:47.401Z,45.5
2022-08-31T15:34:04.505Z,45.4
2022-08-31T15:35:21.609Z,45.3
2022-08-31T15:36:38.713Z,45.3
2022-08-31T15:37:55.816Z,45.3
2022-08-31T15:39:12.920Z,45.2
2022-08-31T15:40:29.040Z,45
2022-08-31T15:41:46.144Z,45
2022-08-31T15:43:03.248Z,45.1
2022-08-31T15:44:20.352Z,45.3
2022-08-31T15:45:37.456Z,45.4
2022-08-31T15:46:53.576Z,45.5
2022-08-31T15:48:10.680Z,45.8
2022-08-31T15:49:27.784Z,46
2022-08-31T15:50:44.889Z,46.2
2022-08-31T15:52:01.992Z,46.5
2022-08-31T15:53:19.096Z,46.8
2022-08-31T15:54:36.200Z,46.4
2022-08-31T15:55:53.304Z,46.4
2022-08-31T15:57:10.408Z,46.8
2022-08-31T15:58:27.512Z,46.8
2022-08-31T15:59:44.616Z,47.1
2022-08-31T16:01:01.720Z,47.5
2022-08-31T16:02:18.824Z,47.5
2022-08-31T16:03:34.944Z,47.5
2022-08-31T16:04:52.048Z,47.4
2022-08-31T16:06:09.152Z,47.4
2022-08-31T16:07:26.256Z,47.2
2022-08-31T16:08:43.360Z,47.4
2022-08-31T16:10:00.464Z,47.4
2022-08-31T16:11:17.568Z,47
2022-08-31T16:12:34.672Z,47.4
2022-08-31T16:13:51.775Z,47.2
2022-08-31T16:15:08.879Z,47.5
2022-08-31T16:16:25.983Z,47.5
2022-08-31T16:17:43.087Z,47.5
2022-08-31T16:19:00.191Z,47.4
2022-08-31T16:20:16.311Z,47.5
2022-08-31T16:21:33.415Z,47.5
2022-08-31T16:22:50.519Z,47.4
2022-08-31T16:24:07.623Z,47.5
2022-08-31T16:25:24.727Z,47.7
2022-08-31T16:26:41.831Z,47.6
2022-08-31T16:27:58.935Z,47.7
2022-08-31T16:29:16.040Z,47.1
2022-08-31T16:30:33.143Z,47.7
2022-08-31T16:31:50.248Z,48
2022-08-31T16:33:07.352Z,48
2022-08-31T16:34:24.456Z,47.9
2022-08-31T16:35:41.560Z,47.8
2022-08-31T16:36:57.680Z,47.7
2022-08-31T16:38:14.784Z,47.9
2022-08-31T16:39:31.889Z,47.9
2022-08-31T16:40:48.994Z,48
2022-08-31T16:42:06.098Z,47.8
2022-08-31T16:43:23.202Z,47.9
2022-08-31T16:44:40.306Z,47.8
2022-08-31T16:45:57.409Z,47.9
2022-08-31T16:47:14.513Z,47.8
2022-08-31T16:48:31.617Z,47.8
2022-08-31T16:49:48.721Z,47.8
2022-08-31T16:51:05.826Z,48
2022-08-31T16:52:22.929Z,48.3
2022-08-31T16:53:39.050Z,48
2022-08-31T16:54:56.154Z,48.1
2022-08-31T16:56:13.258Z,48.2
2022-08-31T16:57:30.362Z,48.2
2022-08-31T16:58:47.466Z,48.1
2022-08-31T17:00:04.570Z,48
2022-08-31T17:01:21.674Z,48.2
2022-08-31T17:02:38.778Z,48.3
2022-08-31T17:03:55.882Z,48.5
2022-08-31T17:05:12.986Z,48.9
2022-08-31T17:06:30.090Z,48.9
2022-08-31T17:07:47.194Z,48.9
2022-08-31T17:09:04.298Z,49
2022-08-31T17:10:20.419Z,49.1
2022-08-31T17:11:37.523Z,49.5
2022-08-31T17:12:54.627Z,49.8